sensor_id;sensor_type;location;lat;lon;timestamp;P1;durP1;ratioP1;P2;durP2;ratioP2
71777;SDS011;59609;52.430;4.668;2023-03-26T00:01:53;7.15;;;2.35;;
71777;SDS011;59609;52.430;4.668;2023-03-26T00:04:18;5.75;;;2.03;;
71777;SDS011;59609;52.430;4.668;2023-03-26T00:06:45;7.18;;;2.58;;
71777;SDS011;59609;52.430;4.668;2023-03-26T00:09:13;12.48;;;2.92;;
71777;SDS011;59609;52.430;4.668;2023-03-26T00:11:40;9.05;;;3.28;;
71777;SDS011;59609;52.430;4.668;2023-03-26T00:14:07;7.85;;;2.65;;
71777;SDS011;59609;52.430;4.668;2023-03-26T00:16:33;12.05;;;2.00;;
71777;SDS011;59609;52.430;4.668;2023-03-26T00:18:59;8.20;;;2.20;;
71777;SDS011;59609;52.430;4.668;2023-03-26T00:21:26;8.80;;;2.60;;
71777;SDS011;59609;52.430;4.668;2023-03-26T00:23:54;10.90;;;2.45;;
71777;SDS011;59609;52.430;4.668;2023-03-26T00:26:22;12.43;;;2.22;;
71777;SDS011;59609;52.430;4.668;2023-03-26T00:28:48;8.73;;;2.42;;
71777;SDS011;59609;52.430;4.668;2023-03-26T00:31:15;12.88;;;2.42;;
71777;SDS011;59609;52.430;4.668;2023-03-26T00:33:41;7.75;;;2.03;;
71777;SDS011;59609;52.430;4.668;2023-03-26T00:36:08;6.25;;;2.40;;
71777;SDS011;59609;52.430;4.668;2023-03-26T00:38:36;6.75;;;2.60;;
71777;SDS011;59609;52.430;4.668;2023-03-26T00:41:03;9.50;;;2.45;;
71777;SDS011;59609;52.430;4.668;2023-03-26T00:43:30;9.70;;;2.42;;
71777;SDS011;59609;52.430;4.668;2023-03-26T00:46:02;9.40;;;1.95;;
71777;SDS011;59609;52.430;4.668;2023-03-26T00:48:28;7.55;;;1.70;;
71777;SDS011;59609;52.430;4.668;2023-03-26T00:50:54;6.43;;;2.50;;
71777;SDS011;59609;52.430;4.668;2023-03-26T00:53:20;11.82;;;2.33;;
71777;SDS011;59609;52.430;4.668;2023-03-26T00:55:46;4.20;;;2.40;;
71777;SDS011;59609;52.430;4.668;2023-03-26T00:58:12;7.13;;;2.58;;
71777;SDS011;59609;52.430;4.668;2023-03-26T01:01:01;6.63;;;2.55;;
71777;SDS011;59609;52.430;4.668;2023-03-26T01:03:27;7.68;;;3.05;;
71777;SDS011;59609;52.430;4.668;2023-03-26T01:05:58;9.20;;;2.28;;
71777;SDS011;59609;52.430;4.668;2023-03-26T01:08:40;8.30;;;2.40;;
71777;SDS011;59609;52.430;4.668;2023-03-26T01:11:42;5.85;;;2.13;;
71777;SDS011;59609;52.430;4.668;2023-03-26T01:14:04;7.20;;;1.95;;
71777;SDS011;59609;52.430;4.668;2023-03-26T01:19:26;7.80;;;2.10;;
71777;SDS011;59609;52.430;4.668;2023-03-26T01:22:17;7.53;;;2.13;;
71777;SDS011;59609;52.430;4.668;2023-03-26T01:24:47;4.22;;;2.00;;
71777;SDS011;59609;52.430;4.668;2023-03-26T01:32:49;10.63;;;2.15;;
71777;SDS011;59609;52.430;4.668;2023-03-26T01:35:23;6.93;;;2.47;;
71777;SDS011;59609;52.430;4.668;2023-03-26T01:43:23;7.95;;;2.25;;
71777;SDS011;59609;52.430;4.668;2023-03-26T01:45:57;8.88;;;3.38;;
71777;SDS011;59609;52.430;4.668;2023-03-26T01:48:39;11.30;;;3.03;;
71777;SDS011;59609;52.430;4.668;2023-03-26T01:53:34;7.13;;;2.55;;
71777;SDS011;59609;52.430;4.668;2023-03-26T02:01:26;10.38;;;2.95;;
71777;SDS011;59609;52.430;4.668;2023-03-26T02:07:07;10.25;;;2.53;;
71777;SDS011;59609;52.430;4.668;2023-03-26T02:09:42;9.35;;;1.95;;
71777;SDS011;59609;52.430;4.668;2023-03-26T02:12:12;12.60;;;2.67;;
71777;SDS011;59609;52.430;4.668;2023-03-26T02:14:38;7.60;;;2.38;;
71777;SDS011;59609;52.430;4.668;2023-03-26T02:17:06;11.85;;;2.72;;
71777;SDS011;59609;52.430;4.668;2023-03-26T02:19:34;9.10;;;2.03;;
71777;SDS011;59609;52.430;4.668;2023-03-26T02:21:59;12.68;;;3.35;;
71777;SDS011;59609;52.430;4.668;2023-03-26T02:24:25;7.32;;;2.40;;
71777;SDS011;59609;52.430;4.668;2023-03-26T02:26:51;11.35;;;2.70;;
71777;SDS011;59609;52.430;4.668;2023-03-26T02:29:17;12.55;;;3.15;;
71777;SDS011;59609;52.430;4.668;2023-03-26T02:31:44;10.65;;;3.03;;
71777;SDS011;59609;52.430;4.668;2023-03-26T02:34:12;10.05;;;2.88;;
71777;SDS011;59609;52.430;4.668;2023-03-26T02:36:38;5.65;;;2.58;;
71777;SDS011;59609;52.430;4.668;2023-03-26T02:39:07;12.30;;;2.10;;
71777;SDS011;59609;52.430;4.668;2023-03-26T02:41:33;10.13;;;2.40;;
71777;SDS011;59609;52.430;4.668;2023-03-26T02:43:58;11.57;;;2.53;;
71777;SDS011;59609;52.430;4.668;2023-03-26T02:46:24;8.80;;;2.40;;
71777;SDS011;59609;52.430;4.668;2023-03-26T02:48:49;13.70;;;3.28;;
71777;SDS011;59609;52.430;4.668;2023-03-26T02:51:15;13.00;;;3.22;;
71777;SDS011;59609;52.430;4.668;2023-03-26T02:53:42;11.27;;;3.40;;
71777;SDS011;59609;52.430;4.668;2023-03-26T02:56:07;11.43;;;3.10;;
71777;SDS011;59609;52.430;4.668;2023-03-26T02:58:33;13.68;;;3.45;;
71777;SDS011;59609;52.430;4.668;2023-03-26T03:00:59;13.15;;;3.72;;
71777;SDS011;59609;52.430;4.668;2023-03-26T03:03:27;9.75;;;3.47;;
71777;SDS011;59609;52.430;4.668;2023-03-26T03:05:54;14.85;;;3.40;;
71777;SDS011;59609;52.430;4.668;2023-03-26T03:08:21;7.53;;;3.30;;
71777;SDS011;59609;52.430;4.668;2023-03-26T03:11:01;12.07;;;3.30;;
71777;SDS011;59609;52.430;4.668;2023-03-26T03:13:30;14.32;;;3.58;;
71777;SDS011;59609;52.430;4.668;2023-03-26T03:15:56;10.90;;;3.72;;
71777;SDS011;59609;52.430;4.668;2023-03-26T03:18:22;11.57;;;3.88;;
71777;SDS011;59609;52.430;4.668;2023-03-26T03:20:47;9.90;;;3.28;;
71777;SDS011;59609;52.430;4.668;2023-03-26T03:23:13;10.23;;;3.78;;
71777;SDS011;59609;52.430;4.668;2023-03-26T03:25:40;15.15;;;3.88;;
71777;SDS011;59609;52.430;4.668;2023-03-26T03:28:06;13.10;;;4.50;;
71777;SDS011;59609;52.430;4.668;2023-03-26T03:30:32;12.32;;;4.50;;
71777;SDS011;59609;52.430;4.668;2023-03-26T03:32:58;12.27;;;4.50;;
71777;SDS011;59609;52.430;4.668;2023-03-26T03:35:24;10.88;;;4.20;;
71777;SDS011;59609;52.430;4.668;2023-03-26T03:37:51;9.77;;;5.00;;
71777;SDS011;59609;52.430;4.668;2023-03-26T03:40:17;11.23;;;5.15;;
71777;SDS011;59609;52.430;4.668;2023-03-26T03:42:43;13.57;;;4.65;;
71777;SDS011;59609;52.430;4.668;2023-03-26T03:45:10;10.63;;;4.82;;
71777;SDS011;59609;52.430;4.668;2023-03-26T03:47:35;12.55;;;4.70;;
71777;SDS011;59609;52.430;4.668;2023-03-26T03:50:01;10.38;;;4.55;;
71777;SDS011;59609;52.430;4.668;2023-03-26T03:52:26;15.32;;;5.15;;
71777;SDS011;59609;52.430;4.668;2023-03-26T03:54:52;12.15;;;5.38;;
71777;SDS011;59609;52.430;4.668;2023-03-26T03:57:19;15.52;;;5.60;;
71777;SDS011;59609;52.430;4.668;2023-03-26T03:59:46;12.52;;;5.00;;
71777;SDS011;59609;52.430;4.668;2023-03-26T04:02:12;9.85;;;5.10;;
71777;SDS011;59609;52.430;4.668;2023-03-26T04:04:37;12.55;;;4.72;;
71777;SDS011;59609;52.430;4.668;2023-03-26T04:07:04;14.88;;;4.43;;
71777;SDS011;59609;52.430;4.668;2023-03-26T04:09:30;12.57;;;4.40;;
71777;SDS011;59609;52.430;4.668;2023-03-26T04:11:55;11.48;;;5.25;;
71777;SDS011;59609;52.430;4.668;2023-03-26T04:14:21;15.40;;;5.50;;
71777;SDS011;59609;52.430;4.668;2023-03-26T04:16:46;13.82;;;5.38;;
71777;SDS011;59609;52.430;4.668;2023-03-26T04:19:13;15.13;;;5.07;;
71777;SDS011;59609;52.430;4.668;2023-03-26T04:21:39;12.82;;;5.60;;
71777;SDS011;59609;52.430;4.668;2023-03-26T04:24:07;13.20;;;5.20;;
71777;SDS011;59609;52.430;4.668;2023-03-26T04:26:33;12.02;;;5.65;;
71777;SDS011;59609;52.430;4.668;2023-03-26T04:29:00;13.48;;;4.28;;
71777;SDS011;59609;52.430;4.668;2023-03-26T04:31:27;14.93;;;5.68;;
71777;SDS011;59609;52.430;4.668;2023-03-26T04:34:04;10.57;;;5.07;;
71777;SDS011;59609;52.430;4.668;2023-03-26T04:36:31;18.63;;;6.00;;
71777;SDS011;59609;52.430;4.668;2023-03-26T04:38:58;10.80;;;5.28;;
71777;SDS011;59609;52.430;4.668;2023-03-26T04:41:27;17.83;;;5.82;;
71777;SDS011;59609;52.430;4.668;2023-03-26T04:43:53;14.77;;;5.57;;
71777;SDS011;59609;52.430;4.668;2023-03-26T04:46:19;14.38;;;5.22;;
71777;SDS011;59609;52.430;4.668;2023-03-26T04:48:51;14.60;;;5.25;;
71777;SDS011;59609;52.430;4.668;2023-03-26T04:51:19;13.50;;;5.82;;
71777;SDS011;59609;52.430;4.668;2023-03-26T04:53:54;14.23;;;6.30;;
71777;SDS011;59609;52.430;4.668;2023-03-26T04:59:21;14.57;;;6.20;;
71777;SDS011;59609;52.430;4.668;2023-03-26T05:01:54;17.98;;;6.60;;
71777;SDS011;59609;52.430;4.668;2023-03-26T05:04:23;13.80;;;6.85;;
71777;SDS011;59609;52.430;4.668;2023-03-26T05:06:50;19.55;;;7.25;;
71777;SDS011;59609;52.430;4.668;2023-03-26T05:09:16;20.60;;;7.82;;
71777;SDS011;59609;52.430;4.668;2023-03-26T05:11:41;18.52;;;7.25;;
71777;SDS011;59609;52.430;4.668;2023-03-26T05:14:07;18.75;;;7.40;;
71777;SDS011;59609;52.430;4.668;2023-03-26T05:16:32;20.60;;;8.32;;
71777;SDS011;59609;52.430;4.668;2023-03-26T05:18:58;20.45;;;8.40;;
71777;SDS011;59609;52.430;4.668;2023-03-26T05:21:24;24.95;;;9.63;;
71777;SDS011;59609;52.430;4.668;2023-03-26T05:23:49;19.52;;;9.23;;
71777;SDS011;59609;52.430;4.668;2023-03-26T05:26:15;25.02;;;10.00;;
71777;SDS011;59609;52.430;4.668;2023-03-26T05:28:40;27.08;;;10.20;;
71777;SDS011;59609;52.430;4.668;2023-03-26T05:31:06;23.38;;;9.10;;
71777;SDS011;59609;52.430;4.668;2023-03-26T05:33:32;26.08;;;10.48;;
71777;SDS011;59609;52.430;4.668;2023-03-26T05:36:04;29.75;;;11.73;;
71777;SDS011;59609;52.430;4.668;2023-03-26T05:38:33;29.70;;;11.63;;
71777;SDS011;59609;52.430;4.668;2023-03-26T05:41:03;29.73;;;11.88;;
71777;SDS011;59609;52.430;4.668;2023-03-26T05:43:31;27.70;;;10.48;;
71777;SDS011;59609;52.430;4.668;2023-03-26T05:45:58;23.40;;;9.27;;
71777;SDS011;59609;52.430;4.668;2023-03-26T05:48:23;22.63;;;9.50;;
71777;SDS011;59609;52.430;4.668;2023-03-26T05:50:50;26.38;;;10.13;;
71777;SDS011;59609;52.430;4.668;2023-03-26T05:53:17;28.40;;;9.45;;
71777;SDS011;59609;52.430;4.668;2023-03-26T05:55:44;25.85;;;9.60;;
71777;SDS011;59609;52.430;4.668;2023-03-26T05:58:11;21.77;;;8.10;;
71777;SDS011;59609;52.430;4.668;2023-03-26T06:00:37;23.80;;;8.27;;
71777;SDS011;59609;52.430;4.668;2023-03-26T06:03:03;21.25;;;7.60;;
71777;SDS011;59609;52.430;4.668;2023-03-26T06:05:33;20.65;;;7.90;;
71777;SDS011;59609;52.430;4.668;2023-03-26T06:08:01;20.65;;;6.72;;
71777;SDS011;59609;52.430;4.668;2023-03-26T06:10:27;16.55;;;6.30;;
71777;SDS011;59609;52.430;4.668;2023-03-26T06:12:52;19.55;;;6.72;;
71777;SDS011;59609;52.430;4.668;2023-03-26T06:15:18;15.85;;;5.68;;
71777;SDS011;59609;52.430;4.668;2023-03-26T06:17:43;15.18;;;5.43;;
71777;SDS011;59609;52.430;4.668;2023-03-26T06:20:10;16.98;;;6.18;;
71777;SDS011;59609;52.430;4.668;2023-03-26T06:22:36;13.23;;;6.07;;
71777;SDS011;59609;52.430;4.668;2023-03-26T06:25:01;12.48;;;5.07;;
71777;SDS011;59609;52.430;4.668;2023-03-26T06:27:27;14.13;;;4.38;;
71777;SDS011;59609;52.430;4.668;2023-03-26T06:29:52;10.95;;;4.45;;
71777;SDS011;59609;52.430;4.668;2023-03-26T06:32:18;11.57;;;3.65;;
71777;SDS011;59609;52.430;4.668;2023-03-26T06:34:44;10.57;;;3.63;;
71777;SDS011;59609;52.430;4.668;2023-03-26T06:37:09;12.75;;;3.00;;
71777;SDS011;59609;52.430;4.668;2023-03-26T06:39:35;12.65;;;4.13;;
71777;SDS011;59609;52.430;4.668;2023-03-26T06:42:00;12.85;;;3.95;;
71777;SDS011;59609;52.430;4.668;2023-03-26T06:44:25;8.45;;;3.28;;
71777;SDS011;59609;52.430;4.668;2023-03-26T06:46:51;14.52;;;4.05;;
71777;SDS011;59609;52.430;4.668;2023-03-26T06:49:16;11.07;;;3.92;;
71777;SDS011;59609;52.430;4.668;2023-03-26T06:51:42;13.43;;;4.85;;
71777;SDS011;59609;52.430;4.668;2023-03-26T06:54:07;13.55;;;3.90;;
71777;SDS011;59609;52.430;4.668;2023-03-26T06:56:33;14.57;;;3.97;;
71777;SDS011;59609;52.430;4.668;2023-03-26T06:58:58;9.80;;;3.03;;
71777;SDS011;59609;52.430;4.668;2023-03-26T07:01:23;12.32;;;3.40;;
71777;SDS011;59609;52.430;4.668;2023-03-26T07:03:49;9.38;;;3.15;;
71777;SDS011;59609;52.430;4.668;2023-03-26T07:06:14;13.48;;;4.05;;
71777;SDS011;59609;52.430;4.668;2023-03-26T07:08:40;9.55;;;3.17;;
71777;SDS011;59609;52.430;4.668;2023-03-26T07:11:05;14.85;;;3.50;;
71777;SDS011;59609;52.430;4.668;2023-03-26T07:13:31;11.95;;;3.65;;
71777;SDS011;59609;52.430;4.668;2023-03-26T07:15:56;12.93;;;3.60;;
71777;SDS011;59609;52.430;4.668;2023-03-26T07:18:22;12.30;;;3.30;;
71777;SDS011;59609;52.430;4.668;2023-03-26T07:20:47;13.00;;;3.20;;
71777;SDS011;59609;52.430;4.668;2023-03-26T07:23:13;12.85;;;3.30;;
71777;SDS011;59609;52.430;4.668;2023-03-26T07:25:44;9.57;;;3.17;;
71777;SDS011;59609;52.430;4.668;2023-03-26T07:30:57;13.15;;;2.75;;
71777;SDS011;59609;52.430;4.668;2023-03-26T07:42:08;10.80;;;2.88;;
71777;SDS011;59609;52.430;4.668;2023-03-26T07:44:55;11.98;;;2.88;;
71777;SDS011;59609;52.430;4.668;2023-03-26T07:47:36;21.63;;;2.95;;
71777;SDS011;59609;52.430;4.668;2023-03-26T07:50:03;17.48;;;3.30;;
71777;SDS011;59609;52.430;4.668;2023-03-26T07:52:29;8.65;;;2.83;;
71777;SDS011;59609;52.430;4.668;2023-03-26T07:54:57;10.85;;;2.80;;
71777;SDS011;59609;52.430;4.668;2023-03-26T07:57:39;7.85;;;2.65;;
71777;SDS011;59609;52.430;4.668;2023-03-26T08:17:16;9.48;;;2.30;;
71777;SDS011;59609;52.430;4.668;2023-03-26T08:19:57;13.38;;;3.53;;
71777;SDS011;59609;52.430;4.668;2023-03-26T08:22:42;11.35;;;3.63;;
71777;SDS011;59609;52.430;4.668;2023-03-26T08:27:46;13.98;;;3.33;;
71777;SDS011;59609;52.430;4.668;2023-03-26T08:30:23;10.90;;;2.38;;
71777;SDS011;59609;52.430;4.668;2023-03-26T08:32:58;9.02;;;3.55;;
71777;SDS011;59609;52.430;4.668;2023-03-26T08:35:28;13.02;;;3.13;;
71777;SDS011;59609;52.430;4.668;2023-03-26T08:37:53;12.05;;;2.90;;
71777;SDS011;59609;52.430;4.668;2023-03-26T08:40:31;11.93;;;2.45;;
71777;SDS011;59609;52.430;4.668;2023-03-26T08:56:00;16.50;;;2.85;;
71777;SDS011;59609;52.430;4.668;2023-03-26T09:06:42;10.18;;;2.80;;
71777;SDS011;59609;52.430;4.668;2023-03-26T09:09:34;9.38;;;2.58;;
71777;SDS011;59609;52.430;4.668;2023-03-26T09:24:33;13.40;;;3.08;;
71777;SDS011;59609;52.430;4.668;2023-03-26T09:32:34;8.90;;;2.40;;
71777;SDS011;59609;52.430;4.668;2023-03-26T09:38:05;13.15;;;3.22;;
71777;SDS011;59609;52.430;4.668;2023-03-26T09:40:43;10.68;;;2.78;;
71777;SDS011;59609;52.430;4.668;2023-03-26T09:57:10;15.30;;;3.97;;
71777;SDS011;59609;52.430;4.668;2023-03-26T09:59:56;14.00;;;2.63;;
71777;SDS011;59609;52.430;4.668;2023-03-26T10:02:44;9.88;;;2.53;;
71777;SDS011;59609;52.430;4.668;2023-03-26T10:33:29;8.60;;;2.22;;
71777;SDS011;59609;52.430;4.668;2023-03-26T10:41:50;14.80;;;2.50;;
71777;SDS011;59609;52.430;4.668;2023-03-26T10:55:37;9.32;;;1.88;;
71777;SDS011;59609;52.430;4.668;2023-03-26T10:58:10;10.93;;;2.42;;
71777;SDS011;59609;52.430;4.668;2023-03-26T11:00:45;8.20;;;1.60;;
71777;SDS011;59609;52.430;4.668;2023-03-26T11:09:00;10.00;;;2.00;;
71777;SDS011;59609;52.430;4.668;2023-03-26T11:14:04;9.15;;;1.77;;
71777;SDS011;59609;52.430;4.668;2023-03-26T11:16:47;8.48;;;1.40;;
71777;SDS011;59609;52.430;4.668;2023-03-26T11:19:32;5.75;;;1.48;;
71777;SDS011;59609;52.430;4.668;2023-03-26T11:30:09;8.80;;;1.80;;
71777;SDS011;59609;52.430;4.668;2023-03-26T11:32:52;11.95;;;1.90;;
71777;SDS011;59609;52.430;4.668;2023-03-26T11:35:30;8.95;;;2.90;;
71777;SDS011;59609;52.430;4.668;2023-03-26T11:38:03;8.38;;;1.75;;
71777;SDS011;59609;52.430;4.668;2023-03-26T11:40:40;7.50;;;2.40;;
71777;SDS011;59609;52.430;4.668;2023-03-26T11:43:11;9.00;;;2.05;;
71777;SDS011;59609;52.430;4.668;2023-03-26T11:45:40;19.02;;;2.28;;
71777;SDS011;59609;52.430;4.668;2023-03-26T11:50:43;6.63;;;1.85;;
71777;SDS011;59609;52.430;4.668;2023-03-26T11:53:12;6.53;;;2.33;;
71777;SDS011;59609;52.430;4.668;2023-03-26T11:58:11;9.85;;;1.80;;
71777;SDS011;59609;52.430;4.668;2023-03-26T12:00:48;14.25;;;2.28;;
71777;SDS011;59609;52.430;4.668;2023-03-26T12:03:16;7.28;;;2.35;;
71777;SDS011;59609;52.430;4.668;2023-03-26T12:05:46;11.10;;;2.00;;
71777;SDS011;59609;52.430;4.668;2023-03-26T12:08:17;5.35;;;1.95;;
71777;SDS011;59609;52.430;4.668;2023-03-26T12:10:58;12.35;;;2.10;;
71777;SDS011;59609;52.430;4.668;2023-03-26T12:16:26;6.80;;;2.07;;
71777;SDS011;59609;52.430;4.668;2023-03-26T12:18:45;8.10;;;1.73;;
71777;SDS011;59609;52.430;4.668;2023-03-26T12:21:44;8.02;;;2.20;;
71777;SDS011;59609;52.430;4.668;2023-03-26T12:24:33;6.40;;;1.90;;
71777;SDS011;59609;52.430;4.668;2023-03-26T12:26:59;8.95;;;1.73;;
71777;SDS011;59609;52.430;4.668;2023-03-26T12:32:37;7.75;;;1.95;;
71777;SDS011;59609;52.430;4.668;2023-03-26T12:34:41;12.40;;;2.38;;
71777;SDS011;59609;52.430;4.668;2023-03-26T12:37:07;7.68;;;1.80;;
71777;SDS011;59609;52.430;4.668;2023-03-26T12:42:56;6.20;;;1.38;;
71777;SDS011;59609;52.430;4.668;2023-03-26T12:47:56;9.52;;;1.58;;
71777;SDS011;59609;52.430;4.668;2023-03-26T12:50:28;10.68;;;1.55;;
71777;SDS011;59609;52.430;4.668;2023-03-26T12:56:11;5.40;;;1.50;;
71777;SDS011;59609;52.430;4.668;2023-03-26T13:06:40;5.90;;;1.60;;
71777;SDS011;59609;52.430;4.668;2023-03-26T13:12:03;2.83;;;1.75;;
71777;SDS011;59609;52.430;4.668;2023-03-26T13:17:03;4.78;;;1.38;;
71777;SDS011;59609;52.430;4.668;2023-03-26T13:19:52;2.78;;;0.90;;
71777;SDS011;59609;52.430;4.668;2023-03-26T13:23:06;6.80;;;2.03;;
71777;SDS011;59609;52.430;4.668;2023-03-26T13:25:45;4.40;;;1.73;;
71777;SDS011;59609;52.430;4.668;2023-03-26T13:43:54;7.68;;;1.90;;
71777;SDS011;59609;52.430;4.668;2023-03-26T13:46:50;5.35;;;1.80;;
71777;SDS011;59609;52.430;4.668;2023-03-26T14:02:09;7.25;;;2.20;;
71777;SDS011;59609;52.430;4.668;2023-03-26T14:04:46;7.22;;;1.73;;
71777;SDS011;59609;52.430;4.668;2023-03-26T14:10:14;8.38;;;2.65;;
71777;SDS011;59609;52.430;4.668;2023-03-26T14:15:29;6.63;;;2.10;;
71777;SDS011;59609;52.430;4.668;2023-03-26T14:44:02;4.10;;;1.65;;
71777;SDS011;59609;52.430;4.668;2023-03-26T15:00:33;7.22;;;1.83;;
71777;SDS011;59609;52.430;4.668;2023-03-26T15:25:37;4.70;;;1.60;;
71777;SDS011;59609;52.430;4.668;2023-03-26T15:53:11;13.70;;;1.80;;
71777;SDS011;59609;52.430;4.668;2023-03-26T16:12:31;2.25;;;1.33;;
71777;SDS011;59609;52.430;4.668;2023-03-26T16:17:53;5.15;;;1.02;;
71777;SDS011;59609;52.430;4.668;2023-03-26T16:20:33;5.88;;;1.40;;
71777;SDS011;59609;52.430;4.668;2023-03-26T16:31:20;6.07;;;1.63;;
71777;SDS011;59609;52.430;4.668;2023-03-26T16:33:52;5.13;;;1.92;;
71777;SDS011;59609;52.430;4.668;2023-03-26T16:36:32;7.35;;;2.17;;
71777;SDS011;59609;52.430;4.668;2023-03-26T16:41:29;5.10;;;1.60;;
71777;SDS011;59609;52.430;4.668;2023-03-26T16:44:08;4.43;;;1.50;;
71777;SDS011;59609;52.430;4.668;2023-03-26T16:55:20;5.65;;;1.83;;
71777;SDS011;59609;52.430;4.668;2023-03-26T17:00:27;7.43;;;1.60;;
71777;SDS011;59609;52.430;4.668;2023-03-26T17:25:04;6.20;;;1.63;;
71777;SDS011;59609;52.430;4.668;2023-03-26T17:27:45;6.38;;;1.58;;
71777;SDS011;59609;52.430;4.668;2023-03-26T17:41:04;5.90;;;1.30;;
71777;SDS011;59609;52.430;4.668;2023-03-26T17:43:32;5.57;;;1.30;;
71777;SDS011;59609;52.430;4.668;2023-03-26T17:46:19;2.95;;;0.85;;
71777;SDS011;59609;52.430;4.668;2023-03-26T17:48:51;8.00;;;1.40;;
71777;SDS011;59609;52.430;4.668;2023-03-26T17:51:30;5.43;;;1.13;;
71777;SDS011;59609;52.430;4.668;2023-03-26T17:57:11;4.55;;;1.40;;
71777;SDS011;59609;52.430;4.668;2023-03-26T17:59:43;9.00;;;1.52;;
71777;SDS011;59609;52.430;4.668;2023-03-26T18:02:11;4.47;;;1.08;;
71777;SDS011;59609;52.430;4.668;2023-03-26T18:04:40;2.67;;;1.00;;
71777;SDS011;59609;52.430;4.668;2023-03-26T18:18:46;10.07;;;1.48;;
71777;SDS011;59609;52.430;4.668;2023-03-26T18:21:01;3.53;;;1.20;;
71777;SDS011;59609;52.430;4.668;2023-03-26T18:23:35;5.75;;;1.45;;
71777;SDS011;59609;52.430;4.668;2023-03-26T18:28:40;7.68;;;1.17;;
71777;SDS011;59609;52.430;4.668;2023-03-26T18:31:11;7.28;;;1.58;;
71777;SDS011;59609;52.430;4.668;2023-03-26T18:33:43;5.72;;;1.20;;
71777;SDS011;59609;52.430;4.668;2023-03-26T18:36:11;4.80;;;1.27;;
71777;SDS011;59609;52.430;4.668;2023-03-26T18:38:38;6.15;;;1.55;;
71777;SDS011;59609;52.430;4.668;2023-03-26T18:41:05;5.30;;;1.85;;
71777;SDS011;59609;52.430;4.668;2023-03-26T18:43:33;2.22;;;1.58;;
71777;SDS011;59609;52.430;4.668;2023-03-26T18:46:00;6.10;;;1.60;;
71777;SDS011;59609;52.430;4.668;2023-03-26T18:48:27;4.75;;;1.25;;
71777;SDS011;59609;52.430;4.668;2023-03-26T18:50:58;7.40;;;1.27;;
71777;SDS011;59609;52.430;4.668;2023-03-26T18:53:26;4.90;;;1.23;;
71777;SDS011;59609;52.430;4.668;2023-03-26T18:55:54;6.10;;;1.15;;
71777;SDS011;59609;52.430;4.668;2023-03-26T19:00:46;4.00;;;1.40;;
71777;SDS011;59609;52.430;4.668;2023-03-26T19:03:13;3.30;;;1.10;;
71777;SDS011;59609;52.430;4.668;2023-03-26T19:05:44;5.93;;;1.30;;
71777;SDS011;59609;52.430;4.668;2023-03-26T19:08:10;6.35;;;2.13;;
71777;SDS011;59609;52.430;4.668;2023-03-26T19:10:36;8.85;;;1.58;;
71777;SDS011;59609;52.430;4.668;2023-03-26T19:13:02;3.53;;;1.25;;
71777;SDS011;59609;52.430;4.668;2023-03-26T19:15:31;5.78;;;1.20;;
71777;SDS011;59609;52.430;4.668;2023-03-26T19:17:59;5.35;;;1.00;;
71777;SDS011;59609;52.430;4.668;2023-03-26T19:23:26;7.80;;;1.55;;
71777;SDS011;59609;52.430;4.668;2023-03-26T19:25:56;9.40;;;1.55;;
71777;SDS011;59609;52.430;4.668;2023-03-26T19:28:27;5.50;;;1.27;;
71777;SDS011;59609;52.430;4.668;2023-03-26T19:30:57;2.03;;;0.75;;
71777;SDS011;59609;52.430;4.668;2023-03-26T19:36:04;8.10;;;1.38;;
71777;SDS011;59609;52.430;4.668;2023-03-26T19:38:48;7.72;;;1.30;;
71777;SDS011;59609;52.430;4.668;2023-03-26T19:41:29;7.28;;;1.98;;
71777;SDS011;59609;52.430;4.668;2023-03-26T19:44:00;7.28;;;1.23;;
71777;SDS011;59609;52.430;4.668;2023-03-26T19:46:27;7.45;;;1.30;;
71777;SDS011;59609;52.430;4.668;2023-03-26T19:48:57;7.25;;;0.95;;
71777;SDS011;59609;52.430;4.668;2023-03-26T19:51:25;2.58;;;1.17;;
71777;SDS011;59609;52.430;4.668;2023-03-26T19:53:57;3.33;;;1.35;;
71777;SDS011;59609;52.430;4.668;2023-03-26T19:56:25;5.50;;;1.30;;
71777;SDS011;59609;52.430;4.668;2023-03-26T19:58:51;5.35;;;1.58;;
71777;SDS011;59609;52.430;4.668;2023-03-26T20:01:21;6.93;;;1.58;;
71777;SDS011;59609;52.430;4.668;2023-03-26T20:04:09;3.88;;;1.23;;
71777;SDS011;59609;52.430;4.668;2023-03-26T20:06:35;5.03;;;1.30;;
71777;SDS011;59609;52.430;4.668;2023-03-26T20:09:03;5.63;;;1.20;;
71777;SDS011;59609;52.430;4.668;2023-03-26T20:11:30;9.77;;;1.48;;
71777;SDS011;59609;52.430;4.668;2023-03-26T20:14:05;4.65;;;0.90;;
71777;SDS011;59609;52.430;4.668;2023-03-26T20:19:01;7.13;;;1.20;;
71777;SDS011;59609;52.430;4.668;2023-03-26T20:21:28;1.67;;;0.80;;
71777;SDS011;59609;52.430;4.668;2023-03-26T20:23:56;5.63;;;1.30;;
71777;SDS011;59609;52.430;4.668;2023-03-26T20:26:23;4.93;;;1.33;;
71777;SDS011;59609;52.430;4.668;2023-03-26T20:28:49;2.83;;;0.90;;
71777;SDS011;59609;52.430;4.668;2023-03-26T20:31:19;6.07;;;0.90;;
71777;SDS011;59609;52.430;4.668;2023-03-26T20:33:46;4.57;;;0.93;;
71777;SDS011;59609;52.430;4.668;2023-03-26T20:36:13;2.60;;;0.85;;
71777;SDS011;59609;52.430;4.668;2023-03-26T20:38:40;7.10;;;1.23;;
71777;SDS011;59609;52.430;4.668;2023-03-26T20:41:11;4.72;;;1.20;;
71777;SDS011;59609;52.430;4.668;2023-03-26T20:43:38;1.30;;;0.82;;
71777;SDS011;59609;52.430;4.668;2023-03-26T20:46:04;6.15;;;1.33;;
71777;SDS011;59609;52.430;4.668;2023-03-26T20:48:30;2.75;;;0.90;;
71777;SDS011;59609;52.430;4.668;2023-03-26T20:50:56;1.73;;;0.60;;
71777;SDS011;59609;52.430;4.668;2023-03-26T20:53:21;6.47;;;1.48;;
71777;SDS011;59609;52.430;4.668;2023-03-26T20:55:48;3.60;;;1.02;;
71777;SDS011;59609;52.430;4.668;2023-03-26T20:58:16;7.70;;;1.02;;
71777;SDS011;59609;52.430;4.668;2023-03-26T21:00:45;4.55;;;0.77;;
71777;SDS011;59609;52.430;4.668;2023-03-26T21:03:12;5.50;;;1.08;;
71777;SDS011;59609;52.430;4.668;2023-03-26T21:05:41;6.10;;;1.30;;
71777;SDS011;59609;52.430;4.668;2023-03-26T21:08:14;4.28;;;1.10;;
71777;SDS011;59609;52.430;4.668;2023-03-26T21:10:42;6.25;;;1.10;;
71777;SDS011;59609;52.430;4.668;2023-03-26T21:16:00;2.33;;;0.90;;
71777;SDS011;59609;52.430;4.668;2023-03-26T21:18:26;3.80;;;1.30;;
71777;SDS011;59609;52.430;4.668;2023-03-26T21:24:05;3.88;;;0.95;;
71777;SDS011;59609;52.430;4.668;2023-03-26T21:26:37;6.05;;;1.95;;
71777;SDS011;59609;52.430;4.668;2023-03-26T21:29:09;9.98;;;1.95;;
71777;SDS011;59609;52.430;4.668;2023-03-26T21:31:35;5.28;;;1.08;;
71777;SDS011;59609;52.430;4.668;2023-03-26T21:34:04;5.25;;;1.02;;
71777;SDS011;59609;52.430;4.668;2023-03-26T21:36:31;3.42;;;1.05;;
71777;SDS011;59609;52.430;4.668;2023-03-26T21:38:57;5.03;;;1.38;;
71777;SDS011;59609;52.430;4.668;2023-03-26T21:43:48;4.13;;;1.08;;
71777;SDS011;59609;52.430;4.668;2023-03-26T21:46:14;2.60;;;0.80;;
71777;SDS011;59609;52.430;4.668;2023-03-26T21:48:42;5.72;;;1.33;;
71777;SDS011;59609;52.430;4.668;2023-03-26T21:51:11;6.57;;;1.45;;
71777;SDS011;59609;52.430;4.668;2023-03-26T21:53:39;6.35;;;1.13;;
71777;SDS011;59609;52.430;4.668;2023-03-26T21:58:58;7.07;;;1.20;;
71777;SDS011;59609;52.430;4.668;2023-03-26T22:01:53;4.50;;;1.15;;
71777;SDS011;59609;52.430;4.668;2023-03-26T22:04:47;5.78;;;1.15;;
71777;SDS011;59609;52.430;4.668;2023-03-26T22:07:18;5.53;;;0.73;;
71777;SDS011;59609;52.430;4.668;2023-03-26T22:09:49;4.07;;;0.77;;
71777;SDS011;59609;52.430;4.668;2023-03-26T22:12:15;5.15;;;1.42;;
71777;SDS011;59609;52.430;4.668;2023-03-26T22:14:40;8.50;;;1.63;;
71777;SDS011;59609;52.430;4.668;2023-03-26T22:17:06;3.80;;;1.00;;
71777;SDS011;59609;52.430;4.668;2023-03-26T22:19:31;3.53;;;0.75;;
71777;SDS011;59609;52.430;4.668;2023-03-26T22:21:58;5.60;;;1.48;;